createdAt,value
2022-08-31T00:00:34.844Z,11.56
2022-08-31T00:01:38.822Z,16.00
2022-08-31T00:02:43.073Z,15.38
2022-08-31T00:03:47.039Z,12.94
2022-08-31T00:04:51.141Z,13.06
2022-08-31T00:06:00.738Z,14.00
2022-08-31T00:07:08.376Z,16.69
2022-08-31T00:08:12.117Z,16.94
2022-08-31T00:09:16.156Z,15.56
2022-08-31T00:10:32.476Z,18.81
2022-08-31T00:11:29.861Z,20.12
2022-08-31T00:12:33.905Z,16.69
2022-08-31T00:13:38.218Z,17.31
2022-08-31T00:14:42.506Z,17.50
2022-08-31T00:15:46.550Z,23.69
2022-08-31T00:16:50.702Z,15.75
2022-08-31T00:17:54.977Z,17.62
2022-08-31T00:18:59.523Z,14.94
2022-08-31T00:20:05.867Z,19.31
2022-08-31T00:21:10.127Z,14.87
2022-08-31T00:22:14.102Z,18.44
2022-08-31T00:23:21.222Z,19.06
2022-08-31T00:24:24.061Z,16.94
2022-08-31T00:25:31.210Z,20.25
2022-08-31T00:26:38.451Z,16.87
2022-08-31T00:27:42.433Z,18.37
2022-08-31T00:28:46.946Z,18.81
2022-08-31T00:29:52.520Z,20.56
2022-08-31T00:30:58.203Z,17.25
2022-08-31T00:32:02.323Z,16.75
2022-08-31T00:33:07.457Z,20.37
2022-08-31T00:34:11.979Z,19.25
2022-08-31T00:35:16.018Z,21.31
2022-08-31T00:36:23.224Z,20.56
2022-08-31T00:37:27.364Z,23.56
2022-08-31T00:38:33.011Z,18.37
2022-08-31T00:39:37.234Z,23.25
2022-08-31T00:40:44.416Z,19.94
2022-08-31T00:41:49.410Z,23.75
2022-08-31T00:42:55.280Z,23.50
2022-08-31T00:44:02.242Z,26.50
2022-08-31T00:45:07.596Z,21.69
2022-08-31T00:46:15.305Z,26.47
2022-08-31T00:47:19.556Z,30.53
2022-08-31T00:48:23.542Z,28.25
2022-08-31T00:49:33.685Z,28.12
2022-08-31T00:50:37.902Z,25.50
2022-08-31T00:51:53.602Z,24.25
2022-08-31T00:53:00.504Z,22.50
2022-08-31T00:54:06.720Z,23.69
2022-08-31T00:55:19.959Z,23.69
2022-08-31T00:56:25.374Z,28.25
2022-08-31T00:57:34.625Z,26.44
2022-08-31T00:58:38.390Z,23.00
2022-08-31T00:59:49.413Z,26.19
2022-08-31T01:00:53.578Z,24.06
2022-08-31T01:01:57.778Z,25.37
2022-08-31T01:03:06.397Z,23.44
2022-08-31T01:04:10.614Z,20.31
2022-08-31T01:05:15.645Z,26.25
2022-08-31T01:06:20.743Z,25.88
2022-08-31T01:07:25.153Z,25.31
2022-08-31T01:08:30.943Z,25.06
2022-08-31T01:09:38.470Z,28.50
2022-08-31T01:10:46.430Z,26.62
2022-08-31T01:11:52.240Z,26.75
2022-08-31T01:12:58.727Z,27.81
2022-08-31T01:14:04.842Z,27.44
2022-08-31T01:15:12.223Z,26.44
2022-08-31T01:16:28.702Z,25.19
2022-08-31T01:17:35.165Z,26.06
2022-08-31T01:18:40.788Z,19.81
2022-08-31T01:20:00.122Z,27.87
2022-08-31T01:21:24.783Z,25.62
2022-08-31T01:22:34.725Z,24.87
2022-08-31T01:23:44.524Z,26.81
2022-08-31T01:24:50.742Z,23.56
2022-08-31T01:25:57.387Z,29.44
2022-08-31T01:27:03.762Z,29.50
2022-08-31T01:28:10.956Z,31.12
2022-08-31T01:29:15.246Z,27.50
2022-08-31T01:30:24.783Z,24.69
2022-08-31T01:31:37.611Z,32.81
2022-08-31T01:32:45.474Z,29.19
2022-08-31T01:33:48.018Z,34.94
2022-08-31T01:34:53.610Z,29.63
2022-08-31T01:36:00.115Z,24.75
2022-08-31T01:37:04.506Z,28.62
2022-08-31T01:38:08.479Z,33.25
2022-08-31T01:39:12.523Z,33.44
2022-08-31T01:40:17.973Z,31.25
2022-08-31T01:41:23.260Z,32.25
2022-08-31T01:42:33.330Z,31.69
2022-08-31T01:43:36.762Z,33.13
2022-08-31T01:44:40.743Z,31.44
2022-08-31T01:45:44.964Z,31.62
2022-08-31T01:46:50.018Z,33.69
2022-08-31T01:47:55.697Z,33.25
2022-08-31T01:48:59.851Z,34.44
2022-08-31T01:50:04.161Z,23.62
2022-08-31T01:51:09.301Z,28.75
2022-08-31T01:52:15.074Z,25.94
2022-08-31T01:53:24.495Z,25.25
2022-08-31T01:54:28.798Z,30.56
2022-08-31T01:55:33.268Z,21.62
2022-08-31T01:56:51.530Z,31.94
2022-08-31T01:57:46.363Z,32.56
2022-08-31T01:58:50.900Z,32.38
2022-08-31T01:59:55.036Z,31.87
2022-08-31T02:00:59.139Z,33.88
2022-08-31T02:02:03.425Z,30.69
2022-08-31T02:03:07.722Z,26.37
2022-08-31T02:04:16.476Z,29.87
2022-08-31T02:05:23.376Z,24.12
2022-08-31T02:06:28.088Z,29.19
2022-08-31T02:07:38.608Z,23.25
2022-08-31T02:08:39.851Z,30.62
2022-08-31T02:09:44.096Z,23.94
2022-08-31T02:10:48.189Z,22.31
2022-08-31T02:11:52.445Z,24.75
2022-08-31T02:12:56.789Z,30.94
2022-08-31T02:14:00.953Z,30.25
2022-08-31T02:15:05.686Z,26.75
2022-08-31T02:16:10.842Z,27.81
2022-08-31T02:17:16.974Z,29.31
2022-08-31T02:18:21.090Z,25.87
2022-08-31T02:19:27.931Z,29.37
2022-08-31T02:20:32.467Z,21.69
2022-08-31T02:21:37.391Z,25.75
2022-08-31T02:22:41.580Z,28.44
2022-08-31T02:23:45.650Z,26.94
2022-08-31T02:24:49.666Z,28.44
2022-08-31T02:25:53.709Z,26.31
2022-08-31T02:26:58.405Z,22.87
2022-08-31T02:28:05.379Z,31.37
2022-08-31T02:29:09.536Z,25.00
2022-08-31T02:30:17.302Z,30.06
2022-08-31T02:31:21.358Z,27.37
2022-08-31T02:32:27.076Z,33.25
2022-08-31T02:33:31.436Z,29.94
2022-08-31T02:34:35.526Z,22.56
2022-08-31T02:35:42.960Z,30.94
2022-08-31T02:36:45.944Z,28.31
2022-08-31T02:37:51.756Z,28.44
2022-08-31T02:38:55.811Z,26.94
2022-08-31T02:40:00.077Z,29.69
2022-08-31T02:41:05.636Z,29.81
2022-08-31T02:42:09.798Z,27.53
2022-08-31T02:43:13.866Z,23.94
2022-08-31T02:44:19.623Z,30.19
2022-08-31T02:45:24.656Z,33.44
2022-08-31T02:46:29.414Z,30.44
2022-08-31T02:47:33.563Z,28.00
2022-08-31T02:48:37.675Z,27.56
2022-08-31T02:49:41.733Z,28.50
2022-08-31T02:50:48.286Z,29.31
2022-08-31T02:51:52.339Z,30.19
2022-08-31T02:52:56.501Z,23.56
2022-08-31T02:54:00.634Z,32.63
2022-08-31T02:55:05.681Z,24.44
2022-08-31T02:56:10.395Z,32.31
2022-08-31T02:57:14.451Z,41.63
2022-08-31T02:58:23.359Z,39.81
2022-08-31T02:59:24.339Z,46.13
2022-08-31T03:00:30.620Z,38.63
2022-08-31T03:01:36.383Z,41.56
2022-08-31T03:02:41.124Z,34.19
2022-08-31T03:03:46.307Z,35.56
2022-08-31T03:04:50.994Z,30.44
2022-08-31T03:05:55.052Z,34.50
2022-08-31T03:06:59.202Z,31.12
2022-08-31T03:08:05.400Z,29.60
2022-08-31T03:09:10.637Z,29.12
2022-08-31T03:10:15.063Z,28.38
2022-08-31T03:11:20.179Z,30.75
2022-08-31T03:12:24.308Z,29.06
2022-08-31T03:13:28.367Z,35.38
2022-08-31T03:14:32.749Z,33.63
2022-08-31T03:15:36.783Z,35.56
2022-08-31T03:16:45.086Z,35.31
2022-08-31T03:17:48.686Z,39.88
2022-08-31T03:18:53.085Z,34.06
2022-08-31T03:19:57.227Z,27.94
2022-08-31T03:21:01.382Z,30.88
2022-08-31T03:22:05.757Z,27.67
2022-08-31T03:23:09.896Z,27.06
2022-08-31T03:24:17.033Z,27.19
2022-08-31T03:25:22.351Z,22.75
2022-08-31T03:26:28.015Z,28.25
2022-08-31T03:27:32.360Z,25.06
2022-08-31T03:28:38.802Z,30.25
2022-08-31T03:29:42.776Z,22.62
2022-08-31T03:30:48.856Z,20.88
2022-08-31T03:31:54.874Z,23.56
2022-08-31T03:33:02.373Z,23.69
2022-08-31T03:34:04.680Z,21.19
2022-08-31T03:35:09.035Z,24.94
2022-08-31T03:36:13.430Z,23.94
2022-08-31T03:37:17.480Z,21.50
2022-08-31T03:38:21.456Z,21.37
2022-08-31T03:39:25.444Z,15.81
2022-08-31T03:40:30.546Z,22.44
2022-08-31T03:41:35.196Z,18.31
2022-08-31T03:42:39.206Z,22.94
2022-08-31T03:43:43.250Z,18.62
2022-08-31T03:44:50.315Z,19.12
2022-08-31T03:45:55.979Z,19.69
2022-08-31T03:47:00.054Z,22.75
2022-08-31T03:48:07.784Z,28.75
2022-08-31T03:49:10.227Z,22.56
2022-08-31T03:50:15.465Z,20.44
2022-08-31T03:51:19.510Z,17.94
2022-08-31T03:52:23.563Z,21.44
2022-08-31T03:53:28.177Z,18.56
2022-08-31T03:54:32.418Z,21.31
2022-08-31T03:55:38.771Z,19.56
2022-08-31T03:56:43.306Z,19.06
2022-08-31T03:57:47.295Z,18.25
2022-08-31T03:58:51.831Z,21.19
2022-08-31T03:59:57.211Z,22.37
2022-08-31T04:01:01.463Z,17.87
2022-08-31T04:02:05.634Z,16.44
2022-08-31T04:03:09.786Z,20.75
2022-08-31T04:04:16.889Z,20.06
2022-08-31T04:05:21.118Z,17.06
2022-08-31T04:06:25.448Z,17.69
2022-08-31T04:07:31.158Z,18.37
2022-08-31T04:08:37.362Z,20.19
2022-08-31T04:09:41.352Z,18.00
2022-08-31T04:10:49.939Z,18.87
2022-08-31T04:11:55.371Z,22.56
2022-08-31T04:12:59.415Z,21.00
2022-08-31T04:14:03.408Z,24.63
2022-08-31T04:15:09.037Z,20.88
2022-08-31T04:16:15.675Z,25.69
2022-08-31T04:17:29.605Z,18.75
2022-08-31T04:18:28.639Z,20.50
2022-08-31T04:19:32.600Z,19.12
2022-08-31T04:20:39.462Z,21.06
2022-08-31T04:21:44.613Z,23.69
2022-08-31T04:22:50.365Z,21.00
2022-08-31T04:23:55.295Z,19.31
2022-08-31T04:24:59.387Z,16.44
2022-08-31T04:26:04.036Z,20.62
2022-08-31T04:27:08.023Z,18.56
2022-08-31T04:28:14.564Z,18.12
2022-08-31T04:29:18.582Z,15.69
2022-08-31T04:30:24.371Z,18.94
2022-08-31T04:31:32.014Z,15.38
2022-08-31T04:32:38.109Z,18.31
2022-08-31T04:33:43.392Z,15.38
2022-08-31T04:34:47.487Z,17.19
2022-08-31T04:35:53.153Z,15.63
2022-08-31T04:36:57.308Z,16.56
2022-08-31T04:38:02.032Z,12.06
2022-08-31T04:39:08.162Z,14.81
2022-08-31T04:40:17.480Z,15.81
2022-08-31T04:41:25.929Z,13.25
2022-08-31T04:42:30.954Z,15.56
2022-08-31T04:43:35.017Z,15.19
2022-08-31T04:44:40.637Z,14.63
2022-08-31T04:45:57.139Z,13.31
2022-08-31T04:46:59.467Z,17.00
2022-08-31T04:48:03.717Z,17.06
2022-08-31T04:49:09.152Z,16.25
2022-08-31T04:50:15.355Z,15.44
2022-08-31T04:51:22.493Z,13.88
2022-08-31T04:52:28.396Z,14.00
2022-08-31T04:53:32.324Z,6.44
2022-08-31T04:54:37.881Z,11.81
2022-08-31T04:55:43.217Z,14.19
2022-08-31T04:56:47.431Z,12.13
2022-08-31T04:57:53.119Z,16.75
2022-08-31T04:59:02.677Z,15.00
2022-08-31T05:00:07.498Z,15.00
2022-08-31T05:01:17.364Z,21.50
2022-08-31T05:02:21.628Z,14.69
2022-08-31T05:03:25.969Z,15.13
2022-08-31T05:04:30.181Z,15.19
2022-08-31T05:05:39.035Z,14.75
2022-08-31T05:06:48.087Z,16.50
2022-08-31T05:07:53.850Z,14.31
2022-08-31T05:09:00.820Z,17.69
2022-08-31T05:10:07.083Z,15.38
2022-08-31T05:11:16.945Z,13.50
2022-08-31T05:12:21.104Z,15.25
2022-08-31T05:13:25.179Z,14.19
2022-08-31T05:14:29.407Z,13.38
2022-08-31T05:15:36.970Z,14.69
2022-08-31T05:16:42.324Z,17.62
2022-08-31T05:17:46.425Z,18.56
2022-08-31T05:18:51.523Z,18.25
2022-08-31T05:19:57.121Z,19.44
2022-08-31T05:21:19.261Z,20.37
2022-08-31T05:22:23.305Z,16.87
2022-08-31T05:23:27.292Z,14.81
2022-08-31T05:24:33.000Z,16.94
2022-08-31T05:25:38.920Z,19.31
2022-08-31T05:26:46.070Z,21.56
2022-08-31T05:27:52.981Z,21.75
2022-08-31T05:29:02.454Z,19.87
2022-08-31T05:30:18.491Z,18.50
2022-08-31T05:31:16.576Z,19.25
2022-08-31T05:32:21.756Z,17.56
2022-08-31T05:33:26.351Z,18.19
2022-08-31T05:34:31.879Z,17.62
2022-08-31T05:35:51.101Z,18.12
2022-08-31T05:36:43.889Z,18.81
2022-08-31T05:37:50.519Z,15.06
2022-08-31T05:38:58.842Z,17.12
2022-08-31T05:40:00.520Z,19.62
2022-08-31T05:41:09.055Z,13.06
2022-08-31T05:42:13.074Z,17.37
2022-08-31T05:43:18.788Z,17.56
2022-08-31T05:44:22.927Z,12.31
2022-08-31T05:45:30.127Z,11.25
2022-08-31T05:46:35.439Z,16.37
2022-08-31T05:47:40.805Z,11.63
2022-08-31T05:48:49.498Z,11.69
2022-08-31T05:49:52.235Z,13.94
2022-08-31T05:50:57.904Z,10.75
2022-08-31T05:52:03.510Z,14.25
2022-08-31T05:53:08.185Z,12.88
2022-08-31T05:54:12.300Z,11.69
2022-08-31T05:55:16.538Z,14.81
2022-08-31T05:56:24.492Z,12.69
2022-08-31T05:57:28.487Z,8.06
2022-08-31T05:58:33.536Z,12.13
2022-08-31T06:00:50.280Z,12.37
2022-08-31T06:01:54.482Z,11.88
2022-08-31T06:04:34.648Z,12.94
2022-08-31T06:05:44.179Z,12.94
2022-08-31T06:06:48.332Z,11.81
2022-08-31T06:07:53.965Z,10.19
2022-08-31T06:08:59.122Z,12.94
2022-08-31T06:10:03.628Z,10.75
2022-08-31T06:11:09.189Z,13.06
2022-08-31T06:12:13.307Z,11.69
2022-08-31T06:13:18.096Z,12.00
2022-08-31T06:14:22.220Z,13.56
2022-08-31T06:15:26.284Z,9.88
2022-08-31T06:16:31.802Z,9.75
2022-08-31T06:17:36.114Z,8.63
2022-08-31T06:18:40.383Z,11.75
2022-08-31T06:19:44.546Z,10.06
2022-08-31T06:20:48.466Z,8.56
2022-08-31T06:21:52.671Z,11.25
2022-08-31T06:22:56.699Z,11.38
2022-08-31T06:24:03.656Z,7.44
2022-08-31T06:25:08.051Z,6.37
2022-08-31T06:26:14.790Z,9.00
2022-08-31T06:27:19.587Z,8.25
2022-08-31T06:28:27.266Z,5.44
2022-08-31T06:29:43.729Z,5.44
2022-08-31T06:30:54.476Z,8.44
2022-08-31T06:31:49.384Z,7.31
2022-08-31T06:33:08.846Z,8.38
2022-08-31T06:34:06.383Z,9.69
2022-08-31T06:35:10.641Z,6.94
2022-08-31T06:36:32.687Z,6.44
2022-08-31T06:37:29.534Z,6.12
2022-08-31T06:38:33.582Z,6.62
2022-08-31T06:39:55.975Z,2.75
2022-08-31T06:40:53.776Z,7.75
2022-08-31T06:42:00.938Z,8.06
2022-08-31T06:43:11.015Z,10.75
2022-08-31T06:44:15.043Z,8.06
2022-08-31T06:45:22.186Z,10.19
2022-08-31T06:46:28.497Z,8.69
2022-08-31T06:47:34.045Z,6.00
2022-08-31T06:48:38.558Z,9.31
2022-08-31T06:49:42.620Z,7.81
2022-08-31T06:50:48.252Z,7.19
2022-08-31T06:51:52.263Z,7.81
2022-08-31T06:52:56.324Z,7.25
2022-08-31T06:54:11.482Z,8.69
2022-08-31T06:55:06.544Z,8.44
2022-08-31T06:56:21.019Z,9.50
2022-08-31T06:57:23.992Z,8.13
2022-08-31T06:58:27.962Z,6.81
2022-08-31T06:59:32.285Z,6.87
2022-08-31T07:00:36.403Z,7.56
2022-08-31T07:01:44.012Z,7.25
2022-08-31T07:02:54.784Z,7.37
2022-08-31T07:03:57.360Z,9.13
2022-08-31T07:05:01.368Z,7.19
2022-08-31T07:06:34.290Z,7.62
2022-08-31T07:07:16.924Z,6.00
2022-08-31T07:08:22.961Z,7.87
2022-08-31T07:09:27.025Z,8.94
2022-08-31T07:10:34.457Z,6.94
2022-08-31T07:11:44.829Z,6.62
2022-08-31T07:12:50.341Z,6.62
2022-08-31T07:13:57.178Z,6.00
2022-08-31T07:15:01.542Z,6.37
2022-08-31T07:16:10.026Z,6.69
2022-08-31T07:17:16.416Z,5.62
2022-08-31T07:18:20.549Z,7.37
2022-08-31T07:19:25.767Z,15.69
2022-08-31T07:20:30.629Z,6.31
2022-08-31T07:21:37.855Z,7.75
2022-08-31T07:22:41.978Z,5.19
2022-08-31T07:23:47.106Z,4.94
2022-08-31T07:24:51.239Z,5.50
2022-08-31T07:25:55.341Z,7.44
2022-08-31T07:27:02.827Z,5.19
2022-08-31T07:28:07.156Z,6.87
2022-08-31T07:29:13.509Z,6.37
2022-08-31T07:30:19.153Z,6.25
2022-08-31T07:31:26.757Z,6.06
2022-08-31T07:32:32.531Z,7.12
2022-08-31T07:33:36.837Z,4.75
2022-08-31T07:34:43.346Z,6.69
2022-08-31T07:35:48.769Z,6.56
2022-08-31T07:36:56.752Z,5.50
2022-08-31T07:38:00.953Z,4.94
2022-08-31T07:39:06.686Z,18.44
2022-08-31T07:40:13.248Z,6.75
2022-08-31T07:41:17.184Z,7.69
2022-08-31T07:42:27.525Z,5.31
2022-08-31T07:43:31.561Z,3.56
2022-08-31T07:44:36.636Z,6.94
2022-08-31T07:45:43.039Z,5.50
2022-08-31T07:46:49.175Z,4.56
2022-08-31T07:47:56.354Z,4.62
2022-08-31T07:49:00.604Z,5.87
2022-08-31T07:50:07.267Z,6.56
2022-08-31T07:51:15.023Z,5.75
2022-08-31T07:52:18.992Z,7.31
2022-08-31T07:53:25.885Z,6.37
2022-08-31T07:54:30.042Z,4.75
2022-08-31T07:55:34.073Z,4.56
2022-08-31T07:56:38.242Z,6.50
2022-08-31T07:57:46.846Z,5.81
2022-08-31T07:58:50.991Z,5.62
2022-08-31T07:59:57.115Z,4.75
2022-08-31T08:01:05.715Z,5.69
2022-08-31T08:02:17.238Z,4.06
2022-08-31T08:03:22.442Z,4.25
2022-08-31T08:04:26.715Z,4.44
2022-08-31T08:05:45.907Z,4.69
2022-08-31T08:06:37.014Z,1.75
2022-08-31T08:07:41.089Z,3.06
2022-08-31T08:08:53.493Z,3.94
2022-08-31T08:09:54.249Z,3.81
2022-08-31T08:10:58.500Z,4.75
2022-08-31T08:12:05.910Z,4.12
2022-08-31T08:13:10.067Z,3.75
2022-08-31T08:14:19.372Z,5.25
2022-08-31T08:15:27.486Z,5.25
2022-08-31T08:16:38.358Z,6.37
2022-08-31T08:17:45.435Z,4.37
2022-08-31T08:18:54.250Z,3.62
2022-08-31T08:19:58.392Z,3.31
2022-08-31T08:21:04.864Z,4.75
2022-08-31T08:22:12.061Z,3.31
2022-08-31T08:23:28.005Z,2.00
2022-08-31T08:25:00.417Z,3.87
2022-08-31T08:25:36.504Z,4.94
2022-08-31T08:26:54.312Z,4.44
2022-08-31T08:28:28.910Z,3.56
2022-08-31T08:29:09.077Z,3.94
2022-08-31T08:30:15.639Z,3.56
2022-08-31T08:31:22.027Z,4.06
2022-08-31T08:32:26.618Z,4.44
2022-08-31T08:33:32.291Z,5.37
2022-08-31T08:34:42.426Z,4.37
2022-08-31T08:35:46.480Z,4.81
2022-08-31T08:36:55.889Z,4.94
2022-08-31T08:37:59.099Z,9.25
2022-08-31T08:39:05.571Z,6.37
2022-08-31T08:40:15.494Z,5.12
2022-08-31T08:41:23.141Z,5.94
2022-08-31T08:42:28.579Z,3.31
2022-08-31T08:43:35.572Z,4.75
2022-08-31T08:44:41.620Z,4.50
2022-08-31T08:45:50.168Z,3.69
2022-08-31T08:47:00.473Z,6.69
2022-08-31T08:48:05.572Z,4.56
2022-08-31T08:49:16.103Z,6.44
2022-08-31T08:50:21.897Z,4.56
2022-08-31T08:51:30.687Z,7.00
2022-08-31T08:52:43.895Z,7.44
2022-08-31T08:53:52.340Z,7.94
2022-08-31T08:54:59.133Z,6.31
2022-08-31T08:56:23.072Z,4.56
2022-08-31T08:57:13.625Z,5.69
2022-08-31T08:58:18.400Z,5.87
2022-08-31T08:59:22.382Z,4.25
2022-08-31T09:00:28.910Z,3.69
2022-08-31T09:01:35.773Z,4.37
2022-08-31T09:03:02.251Z,5.06
2022-08-31T09:04:30.930Z,6.31
2022-08-31T09:06:04.845Z,7.06
2022-08-31T09:07:23.766Z,6.00
2022-08-31T09:08:30.758Z,6.44
2022-08-31T09:10:00.561Z,4.25
2022-08-31T09:11:35.884Z,7.62
2022-08-31T09:12:48.751Z,6.75
2022-08-31T09:14:04.823Z,3.81
2022-08-31T09:15:13.379Z,3.06
2022-08-31T09:16:41.385Z,2.37
2022-08-31T09:18:21.556Z,2.81
2022-08-31T09:19:26.273Z,3.25
2022-08-31T09:20:32.703Z,3.62
2022-08-31T09:21:51.333Z,2.94
2022-08-31T09:22:56.901Z,4.06
2022-08-31T09:24:03.860Z,2.62
2022-08-31T09:25:08.499Z,3.50
2022-08-31T09:26:18.755Z,3.37
2022-08-31T09:27:40.607Z,3.50
2022-08-31T09:28:47.370Z,3.00
2022-08-31T09:30:02.339Z,4.87
2022-08-31T09:31:07.669Z,4.56
2022-08-31T09:32:17.880Z,4.00
2022-08-31T09:33:24.923Z,4.06
2022-08-31T09:34:32.121Z,2.87
2022-08-31T09:35:38.688Z,4.06
2022-08-31T09:36:42.744Z,3.56
2022-08-31T09:37:49.803Z,2.87
2022-08-31T09:38:53.766Z,4.50
2022-08-31T09:40:00.696Z,2.87
2022-08-31T09:41:06.500Z,3.62
2022-08-31T09:42:21.845Z,3.06
2022-08-31T09:43:28.847Z,3.56
2022-08-31T09:44:37.657Z,2.56
2022-08-31T09:45:56.466Z,1.62
2022-08-31T09:47:03.643Z,2.37
2022-08-31T09:48:11.059Z,2.00
2022-08-31T09:49:27.565Z,1.31
2022-08-31T09:50:35.742Z,1.69
2022-08-31T09:51:39.899Z,3.19
2022-08-31T09:52:43.938Z,2.87
2022-08-31T09:53:47.979Z,4.31
2022-08-31T09:54:59.374Z,0.44
2022-08-31T09:56:06.344Z,1.44
2022-08-31T09:57:14.775Z,3.31
2022-08-31T09:58:25.377Z,3.37
2022-08-31T09:59:46.850Z,2.75
2022-08-31T10:00:51.551Z,6.50
2022-08-31T10:01:55.697Z,6.50
2022-08-31T10:03:08.544Z,7.31
2022-08-31T10:04:20.754Z,9.69
2022-08-31T10:05:34.084Z,5.69
2022-08-31T10:06:44.037Z,4.00
2022-08-31T10:07:56.834Z,3.75
2022-08-31T10:09:03.868Z,3.94
2022-08-31T10:10:22.033Z,5.87
2022-08-31T10:11:21.782Z,4.12
2022-08-31T10:12:52.781Z,4.56
2022-08-31T10:14:00.117Z,3.94
2022-08-31T10:15:18.915Z,4.50
2022-08-31T10:16:42.566Z,6.87
2022-08-31T10:18:05.933Z,5.44
2022-08-31T10:19:17.645Z,3.50
2022-08-31T10:20:30.351Z,5.19
2022-08-31T10:21:37.219Z,3.37
2022-08-31T10:22:55.133Z,5.12
2022-08-31T10:24:19.812Z,4.75
2022-08-31T10:25:32.658Z,7.69
2022-08-31T10:26:51.117Z,5.31
2022-08-31T10:28:00.868Z,5.62
2022-08-31T10:29:19.106Z,7.87
2022-08-31T10:30:28.042Z,8.25
2022-08-31T10:31:44.072Z,5.87
2022-08-31T10:33:04.105Z,5.44
2022-08-31T10:34:11.158Z,5.25
2022-08-31T10:35:27.498Z,5.56
2022-08-31T10:36:36.190Z,6.12
2022-08-31T10:37:50.397Z,4.44
2022-08-31T10:39:23.499Z,4.44
2022-08-31T10:40:30.825Z,4.44
2022-08-31T10:41:38.510Z,5.75
2022-08-31T10:43:11.258Z,6.25
2022-08-31T10:44:20.830Z,6.87
2022-08-31T10:45:26.549Z,4.75
2022-08-31T10:46:31.336Z,6.06
2022-08-31T10:47:36.404Z,6.56
2022-08-31T10:48:40.477Z,4.37
2022-08-31T10:49:44.464Z,4.19
2022-08-31T10:51:07.900Z,6.75
2022-08-31T10:52:19.298Z,4.94
2022-08-31T10:53:39.730Z,6.37
2022-08-31T10:54:52.820Z,6.37
2022-08-31T10:56:15.858Z,5.94
2022-08-31T10:57:39.105Z,6.37
2022-08-31T10:58:51.954Z,6.50
2022-08-31T11:00:01.974Z,5.12
2022-08-31T11:01:23.259Z,7.87
2022-08-31T11:02:36.289Z,6.94
2022-08-31T11:04:02.848Z,7.87
2022-08-31T11:05:26.346Z,6.75
2022-08-31T11:06:51.390Z,6.19
2022-08-31T11:08:07.468Z,5.69
2022-08-31T11:09:34.768Z,6.37
2022-08-31T11:10:48.500Z,6.44
2022-08-31T11:12:05.812Z,5.81
2022-08-31T11:13:06.904Z,6.31
2022-08-31T11:14:19.751Z,4.94
2022-08-31T11:15:37.414Z,5.25
2022-08-31T11:16:53.772Z,3.87
2022-08-31T11:18:06.271Z,8.75
2022-08-31T11:19:42.737Z,6.44
2022-08-31T11:21:00.306Z,10.81
2022-08-31T11:22:23.452Z,12.06
2022-08-31T11:23:42.374Z,8.44
2022-08-31T11:25:17.113Z,10.38
2022-08-31T11:26:49.800Z,8.81
2022-08-31T11:27:56.749Z,7.00
2022-08-31T11:29:22.887Z,4.25
2022-08-31T11:30:30.507Z,7.81
2022-08-31T11:31:35.299Z,5.62
2022-08-31T11:32:51.085Z,5.62
2022-08-31T11:34:15.578Z,5.81
2022-08-31T11:35:07.005Z,5.06
2022-08-31T11:36:11.493Z,7.12
2022-08-31T11:37:34.712Z,13.13
2022-08-31T11:38:44.378Z,17.87
2022-08-31T11:39:48.380Z,21.75
2022-08-31T11:41:02.655Z,21.31
2022-08-31T11:42:12.308Z,23.87
2022-08-31T11:43:35.872Z,25.81
2022-08-31T11:44:42.942Z,20.75
2022-08-31T11:45:47.219Z,20.50
2022-08-31T11:47:11.870Z,20.31
2022-08-31T11:48:53.381Z,18.75
2022-08-31T11:50:00.347Z,12.63
2022-08-31T11:51:06.230Z,17.94
2022-08-31T11:52:25.584Z,19.56
2022-08-31T11:53:38.053Z,17.12
2022-08-31T11:54:52.572Z,14.81
2022-08-31T11:56:00.339Z,16.12
2022-08-31T11:57:06.211Z,17.19
2022-08-31T11:58:13.239Z,13.81
2022-08-31T11:59:34.102Z,9.44
2022-08-31T12:00:57.476Z,14.13
2022-08-31T12:02:22.178Z,15.56
2022-08-31T12:03:35.087Z,13.13
2022-08-31T12:04:43.656Z,14.19
2022-08-31T12:05:48.722Z,15.13
2022-08-31T12:06:55.850Z,11.94
2022-08-31T12:08:04.118Z,17.44
2022-08-31T12:09:18.273Z,19.56
2022-08-31T12:10:34.727Z,18.12
2022-08-31T12:11:56.529Z,19.81
2022-08-31T12:13:21.686Z,18.50
2022-08-31T12:14:34.954Z,14.25
2022-08-31T12:15:47.752Z,11.88
2022-08-31T12:16:57.774Z,10.56
2022-08-31T12:18:04.777Z,9.19
2022-08-31T12:19:35.735Z,9.63
2022-08-31T12:20:57.586Z,9.56
2022-08-31T12:22:10.759Z,10.06
2022-08-31T12:23:30.069Z,10.06
2022-08-31T12:24:36.310Z,10.75
2022-08-31T12:25:56.764Z,13.50
2022-08-31T12:27:06.587Z,12.06
2022-08-31T12:28:46.888Z,10.75
2022-08-31T12:29:49.742Z,11.88
2022-08-31T12:30:57.089Z,11.69
2022-08-31T12:32:18.846Z,11.44
2022-08-31T12:33:31.700Z,15.56
2022-08-31T12:34:38.837Z,17.50
2022-08-31T12:35:42.984Z,19.87
2022-08-31T12:36:47.214Z,14.31
2022-08-31T12:38:08.177Z,21.00
2022-08-31T12:39:24.658Z,17.00
2022-08-31T12:40:35.145Z,15.44
2022-08-31T12:41:42.216Z,15.63
2022-08-31T12:42:59.629Z,13.44
2022-08-31T12:44:04.580Z,11.88
2022-08-31T12:45:12.849Z,14.13
2022-08-31T12:46:38.652Z,14.25
2022-08-31T12:47:59.993Z,17.00
2022-08-31T12:49:24.800Z,14.56
2022-08-31T12:50:47.408Z,15.88
2022-08-31T12:52:25.856Z,16.94
2022-08-31T12:53:34.174Z,16.81
2022-08-31T12:54:46.883Z,16.37
2022-08-31T12:56:00.099Z,19.12
2022-08-31T12:57:16.343Z,18.31
2022-08-31T12:58:26.665Z,22.13
2022-08-31T13:00:00.144Z,20.37
2022-08-31T13:00:51.618Z,19.62
2022-08-31T13:01:59.694Z,20.50
2022-08-31T13:03:23.284Z,16.12
2022-08-31T13:04:28.328Z,17.81
2022-08-31T13:05:35.486Z,17.62
2022-08-31T13:06:40.302Z,22.06
2022-08-31T13:07:44.559Z,15.44
2022-08-31T13:08:50.363Z,12.94
2022-08-31T13:10:09.236Z,18.12
2022-08-31T13:11:22.876Z,16.56
2022-08-31T13:12:26.952Z,20.88
2022-08-31T13:13:35.507Z,20.00
2022-08-31T13:14:43.575Z,14.44
2022-08-31T13:15:50.119Z,15.69
2022-08-31T13:17:15.693Z,16.81
2022-08-31T13:18:25.449Z,17.81
2022-08-31T13:19:32.676Z,18.44
2022-08-31T13:20:42.106Z,14.75
2022-08-31T13:21:57.186Z,13.13
2022-08-31T13:23:02.579Z,9.88
2022-08-31T13:24:11.552Z,9.69
2022-08-31T13:25:24.963Z,11.38
2022-08-31T13:26:32.566Z,14.94
2022-08-31T13:27:36.684Z,8.06
2022-08-31T13:28:42.322Z,6.31
2022-08-31T13:29:48.133Z,6.75
2022-08-31T13:31:03.393Z,5.00
2022-08-31T13:32:07.161Z,4.81
2022-08-31T13:33:30.027Z,5.12
2022-08-31T13:34:32.769Z,5.94
2022-08-31T13:35:38.844Z,4.37
2022-08-31T13:36:54.856Z,5.56
2022-08-31T13:38:04.364Z,3.31
2022-08-31T13:39:17.617Z,4.81
2022-08-31T13:40:33.042Z,4.75
2022-08-31T13:41:45.807Z,4.56
2022-08-31T13:42:57.140Z,3.06
2022-08-31T13:44:06.145Z,4.87
2022-08-31T13:45:28.810Z,4.69
2022-08-31T13:46:43.353Z,5.56
2022-08-31T13:47:57.087Z,4.44
2022-08-31T13:48:55.480Z,3.06
2022-08-31T13:50:06.922Z,2.75
2022-08-31T13:51:21.509Z,3.44
2022-08-31T13:52:33.851Z,5.06
2022-08-31T13:53:46.294Z,3.19
2022-08-31T13:55:06.089Z,4.56
2022-08-31T13:56:25.007Z,5.19
2022-08-31T13:57:34.873Z,5.56
2022-08-31T13:58:38.798Z,3.56
2022-08-31T13:59:45.691Z,5.50
2022-08-31T14:00:48.851Z,4.75
2022-08-31T14:02:17.396Z,5.56
2022-08-31T14:03:34.542Z,4.69
2022-08-31T14:04:44.442Z,4.25
2022-08-31T14:05:48.611Z,4.12
2022-08-31T14:06:56.799Z,4.50
2022-08-31T14:08:03.657Z,5.37
2022-08-31T14:09:21.565Z,0.62
2022-08-31T14:10:30.175Z,11.06
2022-08-31T14:11:35.959Z,8.44
2022-08-31T14:12:51.898Z,8.38
2022-08-31T14:14:03.246Z,7.00
2022-08-31T14:15:12.855Z,8.13
2022-08-31T14:16:29.952Z,9.13
2022-08-31T14:18:24.027Z,12.19
2022-08-31T14:18:53.895Z,12.44
2022-08-31T14:20:21.459Z,8.00
2022-08-31T14:21:22.302Z,14.06
2022-08-31T14:22:36.609Z,10.56
2022-08-31T14:23:45.108Z,8.50
2022-08-31T14:24:51.644Z,5.06
2022-08-31T14:26:03.266Z,7.31
2022-08-31T14:27:09.307Z,8.63
2022-08-31T14:28:14.893Z,4.19
2022-08-31T14:29:21.860Z,5.50
2022-08-31T14:30:27.626Z,9.19
2022-08-31T14:31:52.723Z,0.81
2022-08-31T14:33:00.475Z,6.06
2022-08-31T14:34:13.356Z,8.25
2022-08-31T14:35:17.629Z,8.63
2022-08-31T14:36:25.462Z,7.94
2022-08-31T14:37:31.120Z,8.94
2022-08-31T14:38:35.167Z,11.94
2022-08-31T14:39:47.285Z,15.56
2022-08-31T14:40:49.710Z,12.25
2022-08-31T14:41:56.765Z,10.81
2022-08-31T14:43:02.965Z,16.56
2022-08-31T14:44:09.750Z,12.00
2022-08-31T14:45:17.229Z,12.50
2022-08-31T14:46:22.440Z,6.69
2022-08-31T14:47:29.383Z,6.00
2022-08-31T14:48:34.725Z,7.62
2022-08-31T14:49:39.734Z,3.31
2022-08-31T14:50:48.358Z,5.19
2022-08-31T14:51:51.336Z,5.62
2022-08-31T14:52:55.711Z,2.69
2022-08-31T14:54:01.973Z,2.69
2022-08-31T14:55:08.330Z,2.50
2022-08-31T14:56:14.532Z,3.62
2022-08-31T14:57:24.986Z,4.69